createdAt,value
2018-05-09T00:02:11.650Z,18.32
2018-05-09T00:04:40.157Z,18.27
2018-05-09T00:07:08.655Z,18.21
2018-05-09T00:09:37.122Z,18.14
2018-05-09T00:12:05.715Z,18.09
2018-05-09T00:14:34.145Z,18.04
2018-05-09T00:17:02.658Z,17.99
2018-05-09T00:19:31.152Z,17.95
2018-05-09T00:21:59.642Z,17.91
2018-05-09T00:24:28.120Z,17.90
2018-05-09T00:26:56.616Z,17.87
2018-05-09T00:29:25.085Z,17.81
2018-05-09T00:31:53.588Z,17.87
2018-05-09T00:34:22.080Z,17.77
2018-05-09T00:36:50.600Z,17.73
2018-05-09T00:39:19.060Z,17.75
2018-05-09T00:41:47.580Z,17.64
2018-05-09T00:44:16.087Z,17.61
2018-05-09T00:46:44.561Z,17.61
2018-05-09T00:49:13.094Z,17.61
2018-05-09T00:51:41.577Z,17.60
2018-05-09T00:54:21.759Z,17.57
2018-05-09T00:56:50.211Z,17.53
2018-05-09T00:59:18.710Z,17.50
2018-05-09T01:01:47.225Z,17.45
2018-05-09T01:04:15.779Z,17.41
2018-05-09T01:06:44.256Z,17.39
2018-05-09T01:09:12.760Z,17.33
2018-05-09T01:11:41.336Z,17.35
2018-05-09T01:14:09.826Z,17.39
2018-05-09T01:16:38.361Z,17.32
2018-05-09T01:19:06.864Z,17.35
2018-05-09T01:21:35.400Z,17.28
2018-05-09T01:24:03.921Z,17.38
2018-05-09T01:26:32.506Z,17.37
2018-05-09T01:29:01.001Z,17.29
2018-05-09T01:31:29.472Z,17.21
2018-05-09T01:33:57.984Z,17.17
2018-05-09T01:36:26.452Z,17.11
2018-05-09T01:38:54.941Z,17.09
2018-05-09T01:41:23.480Z,17.05
2018-05-09T01:43:51.949Z,16.93
2018-05-09T01:46:20.464Z,17.00
2018-05-09T01:48:48.924Z,16.88
2018-05-09T01:51:17.434Z,16.88
2018-05-09T01:53:45.904Z,16.79
2018-05-09T01:56:14.416Z,16.84
2018-05-09T01:58:42.892Z,16.83
2018-05-09T02:01:11.408Z,16.78
2018-05-09T02:03:39.907Z,16.70
2018-05-09T02:06:08.378Z,16.73
2018-05-09T02:08:36.908Z,16.74
2018-05-09T02:11:05.374Z,16.71
2018-05-09T02:13:33.916Z,16.66
2018-05-09T02:16:02.421Z,16.57
2018-05-09T02:18:30.916Z,16.66
2018-05-09T02:20:59.416Z,16.60
2018-05-09T02:23:27.888Z,16.64
2018-05-09T02:25:56.447Z,16.58
2018-05-09T02:28:24.918Z,16.44
2018-05-09T02:30:53.448Z,16.53
2018-05-09T02:33:21.928Z,16.51
2018-05-09T02:35:50.449Z,16.52
2018-05-09T02:38:18.984Z,16.52
2018-05-09T02:40:47.505Z,16.51
2018-05-09T02:43:15.961Z,16.51
2018-05-09T02:45:44.565Z,16.50
2018-05-09T02:48:13.052Z,16.48
2018-05-09T02:50:41.523Z,16.46
2018-05-09T02:53:10.025Z,16.47
2018-05-09T02:55:38.528Z,16.37
2018-05-09T02:58:07.016Z,16.37
2018-05-09T03:00:35.481Z,16.30
2018-05-09T03:03:03.976Z,16.27
2018-05-09T03:05:32.496Z,16.30
2018-05-09T03:08:00.997Z,16.17
2018-05-09T03:10:29.473Z,16.24
2018-05-09T03:12:57.983Z,16.18
2018-05-09T03:15:26.473Z,16.17
2018-05-09T03:17:54.942Z,16.15
2018-05-09T03:20:23.467Z,16.17
2018-05-09T03:22:51.989Z,16.22
2018-05-09T03:25:20.524Z,16.23
2018-05-09T03:27:49.052Z,16.20
2018-05-09T03:30:17.569Z,16.25
2018-05-09T03:32:46.036Z,16.19
2018-05-09T03:35:14.532Z,16.16
2018-05-09T03:37:43.028Z,16.20
2018-05-09T03:40:11.512Z,16.27
2018-05-09T03:42:40.037Z,16.21
2018-05-09T03:45:08.516Z,16.30
2018-05-09T03:47:37.928Z,16.50
2018-05-09T03:50:06.389Z,16.61
2018-05-09T03:52:34.878Z,16.75
2018-05-09T03:55:03.377Z,16.92
2018-05-09T03:57:31.899Z,17.08
2018-05-09T04:00:00.378Z,17.22
2018-05-09T04:02:44.369Z,17.33
2018-05-09T04:05:24.436Z,17.49
2018-05-09T04:08:04.525Z,17.68
2018-05-09T04:10:33.024Z,17.84
2018-05-09T04:13:01.534Z,18.11
2018-05-09T04:15:30.028Z,18.28
2018-05-09T04:17:58.540Z,18.57
2018-05-09T04:20:27.048Z,18.74
2018-05-09T04:22:55.529Z,18.64
2018-05-09T04:25:24.062Z,18.50
2018-05-09T04:27:52.543Z,18.61
2018-05-09T04:30:21.068Z,18.95
2018-05-09T04:32:49.533Z,19.10
2018-05-09T04:35:18.024Z,19.23
2018-05-09T04:37:46.516Z,19.45
2018-05-09T04:40:15.008Z,19.69
2018-05-09T04:42:43.485Z,19.91
2018-05-09T04:45:11.984Z,19.98
2018-05-09T04:47:40.457Z,20.09
2018-05-09T04:50:08.952Z,20.25
2018-05-09T04:52:37.420Z,20.33
2018-05-09T04:55:05.945Z,20.66
2018-05-09T04:57:34.421Z,20.89
2018-05-09T05:00:02.908Z,20.93
2018-05-09T05:02:31.428Z,20.91
2018-05-09T05:04:59.936Z,21.00
2018-05-09T05:07:28.467Z,21.19
2018-05-09T05:09:56.928Z,21.26
2018-05-09T05:12:25.447Z,21.38
2018-05-09T05:14:53.924Z,21.61
2018-05-09T05:17:22.450Z,21.97
2018-05-09T05:19:50.932Z,22.13
2018-05-09T05:22:19.432Z,22.34
2018-05-09T05:24:47.910Z,22.41
2018-05-09T05:27:16.429Z,22.60
2018-05-09T05:29:44.925Z,22.43
2018-05-09T05:32:13.429Z,22.39
2018-05-09T05:34:41.894Z,22.33
2018-05-09T05:37:10.348Z,22.56
2018-05-09T05:39:38.854Z,23.08
2018-05-09T05:42:07.339Z,23.11
2018-05-09T05:44:35.873Z,23.30
2018-05-09T05:47:04.344Z,23.31
2018-05-09T05:49:32.844Z,23.48
2018-05-09T05:52:01.329Z,23.44
2018-05-09T05:54:29.804Z,23.55
2018-05-09T05:56:58.340Z,23.56
2018-05-09T05:59:26.822Z,23.96
2018-05-09T06:01:55.324Z,24.25
2018-05-09T06:04:23.788Z,24.32
2018-05-09T06:06:52.296Z,24.55
2018-05-09T06:09:20.897Z,24.68
2018-05-09T06:11:49.353Z,24.99
2018-05-09T06:14:17.911Z,25.02
2018-05-09T06:16:46.379Z,24.82
2018-05-09T06:19:14.928Z,25.00
2018-05-09T06:21:43.382Z,25.26
2018-05-09T06:24:11.984Z,25.06
2018-05-09T06:26:40.388Z,25.28
2018-05-09T06:29:08.858Z,25.42
2018-05-09T06:31:37.402Z,25.28
2018-05-09T06:34:05.910Z,25.54
2018-05-09T06:36:34.439Z,25.42
2018-05-09T06:39:02.957Z,25.08
2018-05-09T06:41:31.466Z,25.42
2018-05-09T06:43:59.972Z,25.47
2018-05-09T06:46:28.473Z,25.38
2018-05-09T06:48:56.925Z,25.38
2018-05-09T06:51:25.439Z,25.45
2018-05-09T06:53:53.912Z,25.60
2018-05-09T06:56:22.430Z,25.87
2018-05-09T06:58:50.875Z,25.95
2018-05-09T07:01:19.503Z,25.86
2018-05-09T07:03:48.104Z,26.07
2018-05-09T07:06:16.843Z,26.13
2018-05-09T07:08:45.720Z,26.02
2018-05-09T07:11:14.267Z,26.11
2018-05-09T07:13:42.838Z,26.25
2018-05-09T07:16:11.561Z,26.22
2018-05-09T07:18:40.097Z,26.08
2018-05-09T07:21:08.541Z,26.18
2018-05-09T07:23:37.088Z,26.37
2018-05-09T07:26:05.771Z,26.49
2018-05-09T07:28:34.301Z,26.20
2018-05-09T07:31:02.827Z,26.26
2018-05-09T07:33:31.568Z,26.21
2018-05-09T07:36:00.617Z,26.25
2018-05-09T07:38:29.079Z,26.11
2018-05-09T07:40:57.619Z,26.46
2018-05-09T07:43:26.137Z,26.41
2018-05-09T07:45:54.612Z,26.41
2018-05-09T07:48:23.113Z,26.41
2018-05-09T07:50:51.563Z,26.33
2018-05-09T07:53:20.088Z,26.45
2018-05-09T07:55:48.552Z,26.23
2018-05-09T07:58:17.028Z,26.42
2018-05-09T08:00:45.520Z,26.46
2018-05-09T08:03:13.976Z,26.70
2018-05-09T08:05:42.469Z,26.72
2018-05-09T08:08:10.929Z,26.51
2018-05-09T08:10:39.445Z,26.67
2018-05-09T08:13:07.986Z,26.52
2018-05-09T08:15:36.506Z,26.52
2018-05-09T08:18:05.005Z,26.70
2018-05-09T08:20:33.515Z,26.90
2018-05-09T08:23:01.980Z,27.05
2018-05-09T08:25:30.472Z,26.97
2018-05-09T08:27:59.012Z,27.08
2018-05-09T08:30:27.503Z,27.11
2018-05-09T08:32:56.016Z,27.29
2018-05-09T08:35:24.500Z,27.26
2018-05-09T08:37:52.974Z,27.40
2018-05-09T08:40:21.471Z,27.42
2018-05-09T08:42:49.990Z,27.49
2018-05-09T08:45:18.456Z,27.63
2018-05-09T08:47:46.936Z,27.65
2018-05-09T08:50:15.425Z,27.62
2018-05-09T08:52:43.905Z,27.86
2018-05-09T08:55:12.495Z,27.93
2018-05-09T08:57:41.024Z,28.09
2018-05-09T09:00:09.501Z,27.90
2018-05-09T09:02:37.992Z,28.00
2018-05-09T09:05:06.497Z,27.94
2018-05-09T09:07:34.988Z,27.95
2018-05-09T09:10:03.510Z,28.08
2018-05-09T09:12:32.066Z,28.20
2018-05-09T09:15:00.554Z,27.99
2018-05-09T09:17:29.116Z,28.10
2018-05-09T09:19:57.598Z,27.94
2018-05-09T09:22:26.100Z,28.27
2018-05-09T09:24:54.589Z,28.25
2018-05-09T09:27:23.053Z,28.38
2018-05-09T09:29:51.560Z,28.29
2018-05-09T09:32:20.048Z,28.47
2018-05-09T09:34:48.562Z,28.35
2018-05-09T09:37:17.072Z,28.56
2018-05-09T09:39:45.560Z,28.54
2018-05-09T09:42:14.084Z,28.79
2018-05-09T09:44:42.569Z,28.70
2018-05-09T09:47:11.078Z,28.73
2018-05-09T09:49:39.529Z,28.72
2018-05-09T09:52:08.103Z,28.59
2018-05-09T09:54:36.624Z,28.67
2018-05-09T09:57:05.091Z,28.61
2018-05-09T09:59:33.621Z,28.51
2018-05-09T10:02:02.072Z,28.74
2018-05-09T10:04:30.725Z,28.73
2018-05-09T10:06:59.251Z,28.69
2018-05-09T10:09:27.765Z,28.93
2018-05-09T10:11:56.221Z,28.99
2018-05-09T10:14:24.817Z,28.91
2018-05-09T10:16:53.309Z,29.13
2018-05-09T10:19:21.844Z,29.04
2018-05-09T10:21:50.319Z,28.97
2018-05-09T10:24:18.832Z,29.17
2018-05-09T10:26:47.352Z,29.16
2018-05-09T10:29:15.852Z,29.17
2018-05-09T10:31:44.340Z,29.08
2018-05-09T10:34:12.865Z,29.21
2018-05-09T10:36:41.342Z,29.04
2018-05-09T10:39:09.859Z,29.23
2018-05-09T10:41:38.359Z,29.03
2018-05-09T10:44:06.820Z,29.17
2018-05-09T10:46:35.300Z,29.35
2018-05-09T10:49:03.764Z,29.32
2018-05-09T10:51:32.268Z,29.12
2018-05-09T10:54:00.725Z,29.15
2018-05-09T10:56:29.254Z,29.10
2018-05-09T10:58:57.708Z,29.21
2018-05-09T11:01:26.209Z,29.08
2018-05-09T11:03:54.676Z,29.08
2018-05-09T11:06:23.169Z,29.23
2018-05-09T11:08:51.749Z,29.17
2018-05-09T11:11:20.248Z,29.16
2018-05-09T11:13:48.726Z,29.34
2018-05-09T11:16:17.257Z,29.39
2018-05-09T11:18:45.741Z,29.37
2018-05-09T11:21:14.221Z,29.26
2018-05-09T11:23:42.682Z,29.34
2018-05-09T11:26:11.147Z,29.33
2018-05-09T11:28:39.613Z,29.40
2018-05-09T11:31:08.237Z,29.32
2018-05-09T11:33:36.755Z,29.30
2018-05-09T11:36:05.309Z,29.46
2018-05-09T11:38:33.811Z,29.44
2018-05-09T11:41:02.321Z,29.48
2018-05-09T11:43:30.849Z,29.52
2018-05-09T11:45:59.341Z,29.51
2018-05-09T11:48:27.833Z,29.53
2018-05-09T11:50:56.296Z,29.69
2018-05-09T11:53:24.785Z,29.63
2018-05-09T11:55:53.280Z,29.67
2018-05-09T11:58:21.795Z,29.71
2018-05-09T12:00:50.272Z,29.60
2018-05-09T12:03:18.740Z,29.63
2018-05-09T12:05:47.252Z,29.38
2018-05-09T12:08:15.698Z,29.60
2018-05-09T12:10:44.327Z,29.41
2018-05-09T12:13:12.681Z,29.47
2018-05-09T12:15:41.197Z,29.46
2018-05-09T12:18:09.693Z,29.55
2018-05-09T12:20:38.161Z,29.55
2018-05-09T12:23:06.644Z,29.55
2018-05-09T12:25:35.121Z,29.57
2018-05-09T12:28:03.632Z,29.54
2018-05-09T12:30:32.089Z,29.64
2018-05-09T12:33:00.610Z,29.69
2018-05-09T12:35:29.086Z,29.66
2018-05-09T12:37:57.550Z,29.82
2018-05-09T12:40:26.044Z,29.95
2018-05-09T12:42:54.537Z,29.98
2018-05-09T12:45:22.996Z,29.88
2018-05-09T12:47:51.461Z,29.70
2018-05-09T12:50:19.953Z,29.86
2018-05-09T12:52:48.462Z,29.73
2018-05-09T12:55:16.948Z,29.55
2018-05-09T12:57:45.486Z,29.67
2018-05-09T13:00:13.990Z,29.71
2018-05-09T13:02:42.477Z,29.73
2018-05-09T13:05:10.941Z,29.66
2018-05-09T13:07:39.452Z,29.63
2018-05-09T13:10:07.918Z,29.72
2018-05-09T13:12:36.421Z,29.84
2018-05-09T13:15:04.969Z,29.80
2018-05-09T13:17:33.434Z,29.69
2018-05-09T13:20:01.948Z,29.62
2018-05-09T13:22:30.434Z,29.62
2018-05-09T13:24:59.013Z,29.61
2018-05-09T13:27:27.469Z,29.53
2018-05-09T13:29:55.981Z,29.60
2018-05-09T13:32:24.428Z,29.65
2018-05-09T13:34:52.933Z,29.73
2018-05-09T13:37:21.449Z,29.74
2018-05-09T13:39:49.984Z,29.72
2018-05-09T13:42:18.453Z,29.65
2018-05-09T13:44:46.958Z,29.71
2018-05-09T13:47:15.453Z,29.74
2018-05-09T13:49:43.905Z,29.81
2018-05-09T13:52:12.398Z,29.80
2018-05-09T13:54:40.897Z,29.73
2018-05-09T13:57:09.361Z,29.81
2018-05-09T13:59:37.875Z,29.70
2018-05-09T14:02:06.401Z,29.83
2018-05-09T14:04:34.923Z,29.81
2018-05-09T14:07:03.432Z,29.82
2018-05-09T14:09:31.912Z,29.91
2018-05-09T14:12:00.426Z,29.84
2018-05-09T14:14:28.874Z,29.89
2018-05-09T14:16:57.362Z,29.85
2018-05-09T14:19:25.813Z,29.74
2018-05-09T14:21:54.277Z,29.72
2018-05-09T14:24:22.772Z,29.76
2018-05-09T14:26:51.241Z,29.75
2018-05-09T14:29:19.762Z,29.72
2018-05-09T14:31:48.220Z,29.65
2018-05-09T14:34:16.710Z,29.64
2018-05-09T14:36:45.173Z,29.64
2018-05-09T14:39:13.701Z,29.54
2018-05-09T14:41:42.180Z,29.31
2018-05-09T14:44:10.645Z,29.09
2018-05-09T14:46:39.167Z,28.94
2018-05-09T14:49:07.661Z,28.95
2018-05-09T14:51:36.183Z,29.01
2018-05-09T14:54:04.648Z,28.96
2018-05-09T14:56:33.144Z,28.88
2018-05-09T14:59:01.688Z,28.96
2018-05-09T15:01:30.189Z,28.76
2018-05-09T15:03:58.720Z,28.75
2018-05-09T15:06:27.233Z,28.65
2018-05-09T15:08:55.833Z,28.61
2018-05-09T15:11:24.324Z,28.51
2018-05-09T15:13:52.787Z,28.45
2018-05-09T15:16:21.300Z,28.39
2018-05-09T15:18:49.805Z,28.36
2018-05-09T15:21:18.296Z,28.25
2018-05-09T15:23:46.730Z,28.17
2018-05-09T15:26:15.234Z,28.13
2018-05-09T15:28:43.688Z,28.10
2018-05-09T15:31:12.220Z,28.06
2018-05-09T15:33:40.733Z,27.99
2018-05-09T15:36:09.229Z,27.98
2018-05-09T15:38:37.697Z,27.91
2018-05-09T15:41:06.180Z,27.91
2018-05-09T15:43:34.680Z,27.87
2018-05-09T15:46:03.184Z,27.84
2018-05-09T15:48:31.652Z,27.81
2018-05-09T15:51:00.121Z,27.75
2018-05-09T15:53:28.648Z,27.76
2018-05-09T15:55:57.128Z,27.70
2018-05-09T15:58:25.626Z,27.67
2018-05-09T16:00:54.169Z,27.67
2018-05-09T16:03:22.632Z,27.64
2018-05-09T16:05:51.185Z,27.71
2018-05-09T16:08:19.619Z,27.69
2018-05-09T16:10:48.148Z,27.71
2018-05-09T16:13:16.609Z,27.71
2018-05-09T16:15:45.094Z,27.72
2018-05-09T16:18:13.580Z,27.75
2018-05-09T16:20:42.077Z,27.76
2018-05-09T16:23:10.597Z,27.76
2018-05-09T16:25:39.070Z,27.75
2018-05-09T16:28:07.540Z,27.72
2018-05-09T16:30:36.036Z,27.72
2018-05-09T16:33:04.566Z,27.69
2018-05-09T16:35:33.073Z,27.68
2018-05-09T16:38:01.549Z,27.72
2018-05-09T16:40:30.134Z,27.66
2018-05-09T16:42:58.617Z,27.56
2018-05-09T16:45:27.175Z,27.52
2018-05-09T16:47:55.655Z,27.42
2018-05-09T16:50:24.147Z,27.32
2018-05-09T16:52:52.659Z,27.18
2018-05-09T16:55:21.124Z,27.02
2018-05-09T16:57:49.611Z,26.87
2018-05-09T17:00:18.164Z,26.71
2018-05-09T17:02:46.718Z,26.57
2018-05-09T17:05:15.153Z,26.26
2018-05-09T17:07:43.629Z,26.08
2018-05-09T17:10:12.136Z,25.79
2018-05-09T17:12:40.684Z,25.73
2018-05-09T17:15:09.128Z,25.54
2018-05-09T17:17:37.653Z,25.33
2018-05-09T17:20:06.134Z,25.27
2018-05-09T17:22:34.664Z,25.27
2018-05-09T17:25:03.127Z,25.18
2018-05-09T17:27:31.668Z,25.02
2018-05-09T17:30:00.117Z,24.91
2018-05-09T17:32:28.636Z,24.81
2018-05-09T17:34:57.096Z,24.75
2018-05-09T17:37:25.593Z,24.61
2018-05-09T17:39:54.097Z,24.43
2018-05-09T17:42:22.596Z,24.48
2018-05-09T17:44:51.048Z,24.40
2018-05-09T17:47:19.554Z,24.28
2018-05-09T17:49:48.057Z,24.24
2018-05-09T17:52:16.611Z,24.08
2018-05-09T17:54:45.056Z,23.95
2018-05-09T17:57:13.557Z,23.78
2018-05-09T17:59:42.111Z,23.68
2018-05-09T18:02:10.600Z,23.59
2018-05-09T18:04:39.075Z,23.47
2018-05-09T18:07:07.532Z,23.29
2018-05-09T18:09:36.031Z,23.22
2018-05-09T18:12:04.511Z,23.09
2018-05-09T18:14:32.993Z,23.09
2018-05-09T18:17:01.532Z,22.89
2018-05-09T18:19:29.996Z,22.93
2018-05-09T18:21:58.448Z,22.91
2018-05-09T18:24:26.975Z,22.89
2018-05-09T18:26:55.492Z,22.78
2018-05-09T18:29:23.961Z,22.87
2018-05-09T18:31:52.424Z,22.94
2018-05-09T18:34:20.909Z,22.91
2018-05-09T18:36:49.397Z,22.88
2018-05-09T18:39:17.903Z,22.83
2018-05-09T18:41:46.357Z,22.83
2018-05-09T18:44:14.853Z,22.83
2018-05-09T18:46:43.370Z,22.80
2018-05-09T18:49:11.825Z,22.74
2018-05-09T18:51:40.336Z,22.76
2018-05-09T18:54:08.899Z,22.74
2018-05-09T18:56:37.403Z,22.69
2018-05-09T18:59:05.845Z,22.63
2018-05-09T19:01:34.326Z,22.61
2018-05-09T19:04:02.798Z,22.58
2018-05-09T19:06:31.325Z,22.51
2018-05-09T19:08:59.775Z,22.49
2018-05-09T19:11:28.254Z,22.39
2018-05-09T19:13:56.772Z,22.39
2018-05-09T19:16:25.302Z,22.32
2018-05-09T19:18:53.771Z,22.33
2018-05-09T19:21:22.289Z,22.32
2018-05-09T19:23:50.749Z,22.17
2018-05-09T19:26:19.221Z,22.21
2018-05-09T19:28:47.700Z,22.21
2018-05-09T19:31:16.140Z,22.12
2018-05-09T19:33:44.652Z,22.10
2018-05-09T19:36:13.116Z,22.17
2018-05-09T19:38:41.744Z,22.17
2018-05-09T19:41:10.140Z,22.12
2018-05-09T19:43:38.592Z,22.10
2018-05-09T19:46:07.103Z,22.08
2018-05-09T19:48:35.568Z,22.03
2018-05-09T19:51:04.133Z,21.91
2018-05-09T19:53:32.572Z,21.90
2018-05-09T19:56:01.049Z,21.88
2018-05-09T19:58:29.500Z,21.90
2018-05-09T20:00:57.987Z,21.88
2018-05-09T20:03:26.436Z,21.87
2018-05-09T20:05:54.929Z,21.83
2018-05-09T20:08:23.412Z,21.71
2018-05-09T20:10:51.892Z,21.64
2018-05-09T20:13:20.421Z,21.51
2018-05-09T20:15:48.904Z,21.39
2018-05-09T20:18:17.344Z,21.32
2018-05-09T20:20:45.844Z,21.25
2018-05-09T20:23:14.364Z,21.13
2018-05-09T20:25:42.861Z,21.03
2018-05-09T20:28:11.344Z,21.01
2018-05-09T20:30:45.420Z,20.97
2018-05-09T20:33:13.884Z,20.94
2018-05-09T20:35:42.373Z,20.81
2018-05-09T20:38:10.864Z,20.83
2018-05-09T20:40:39.322Z,20.82
2018-05-09T20:43:07.800Z,20.66
2018-05-09T20:45:36.405Z,20.73
2018-05-09T20:48:04.857Z,20.51
2018-05-09T20:50:33.345Z,20.38
2018-05-09T20:53:01.788Z,20.38
2018-05-09T20:55:30.307Z,20.33
2018-05-09T20:57:58.861Z,20.38
2018-05-09T21:00:27.424Z,20.32
2018-05-09T21:02:55.873Z,20.18
2018-05-09T21:05:24.406Z,20.21
2018-05-09T21:07:56.807Z,20.21
2018-05-09T21:10:25.287Z,20.18
2018-05-09T21:12:53.728Z,20.00
2018-05-09T21:15:22.260Z,20.13
2018-05-09T21:17:50.723Z,20.17
2018-05-09T21:20:19.182Z,20.19
2018-05-09T21:22:47.665Z,20.15
2018-05-09T21:25:16.155Z,19.99
2018-05-09T21:27:44.708Z,19.96
2018-05-09T21:30:13.250Z,19.93
2018-05-09T21:32:41.705Z,19.96
2018-05-09T21:35:10.149Z,19.95
2018-05-09T21:37:38.644Z,20.00
2018-05-09T21:40:07.099Z,19.98
2018-05-09T21:42:35.589Z,19.97
2018-05-09T21:45:04.065Z,19.98
2018-05-09T21:47:32.545Z,19.86
2018-05-09T21:50:01.068Z,19.88
2018-05-09T21:52:29.553Z,19.85
2018-05-09T21:54:58.037Z,19.61
2018-05-09T21:57:26.470Z,19.70
2018-05-09T21:59:54.957Z,19.66
2018-05-09T22:02:23.404Z,19.62
2018-05-09T22:04:51.893Z,19.68
2018-05-09T22:07:20.353Z,19.66
2018-05-09T22:09:48.868Z,19.68
2018-05-09T22:12:17.349Z,19.69
2018-05-09T22:14:45.843Z,19.74
2018-05-09T22:17:14.356Z,19.73
2018-05-09T22:19:42.800Z,19.65
2018-05-09T22:22:11.297Z,19.63
2018-05-09T22:24:39.747Z,19.67
2018-05-09T22:27:08.192Z,19.70
2018-05-09T22:29:36.673Z,19.67
2018-05-09T22:32:05.041Z,19.67
2018-05-09T22:34:33.486Z,19.66
2018-05-09T22:37:01.921Z,19.66
2018-05-09T22:39:30.367Z,19.48
2018-05-09T22:41:58.787Z,19.62
2018-05-09T22:44:27.219Z,19.68
2018-05-09T22:46:55.603Z,19.65
2018-05-09T22:49:23.983Z,19.64
2018-05-09T22:51:52.395Z,19.64
2018-05-09T22:54:20.768Z,19.61
2018-05-09T22:56:49.199Z,19.61
2018-05-09T22:59:17.596Z,19.65
2018-05-09T23:01:46.031Z,19.66
2018-05-09T23:04:14.415Z,19.68
2018-05-09T23:06:42.878Z,19.67
2018-05-09T23:09:11.377Z,19.62
2018-05-09T23:11:39.829Z,19.48
2018-05-09T23:14:08.340Z,19.42
2018-05-09T23:16:36.808Z,19.49
2018-05-09T23:19:05.290Z,19.53
2018-05-09T23:21:33.814Z,19.57
2018-05-09T23:24:02.290Z,19.56
2018-05-09T23:26:30.819Z,19.62
2018-05-09T23:28:59.277Z,19.62
2018-05-09T23:31:27.736Z,19.66
2018-05-09T23:33:56.254Z,19.70
2018-05-09T23:36:24.761Z,19.74
2018-05-09T23:38:53.241Z,19.74
2018-05-09T23:41:21.733Z,19.75
2018-05-09T23:43:50.228Z,19.76
2018-05-09T23:46:18.784Z,19.78
2018-05-09T23:48:47.304Z,19.82
2018-05-09T23:51:15.804Z,19.84
2018-05-09T23:53:44.296Z,19.84
2018-05-09T23:56:12.792Z,19.83
2018-05-09T23:58:41.276Z,19.86
